createdAt,value
2019-02-08T00:01:57.633Z,83.46
2019-02-08T00:04:27.870Z,83.46
2019-02-08T00:06:57.797Z,83.72
2019-02-08T00:09:28.085Z,84.20
2019-02-08T00:11:58.288Z,84.27
2019-02-08T00:14:29.069Z,84.62
2019-02-08T00:16:59.251Z,84.75
2019-02-08T00:19:29.158Z,84.87
2019-02-08T00:21:59.307Z,85.10
2019-02-08T00:24:29.644Z,85.26
2019-02-08T00:26:59.886Z,85.45
2019-02-08T00:29:30.154Z,85.61
2019-02-08T00:32:00.985Z,85.95
2019-02-08T00:34:31.282Z,85.95
2019-02-08T00:37:01.722Z,86.04
2019-02-08T00:39:31.912Z,86.04
2019-02-08T00:42:02.078Z,86.07
2019-02-08T00:44:32.361Z,85.92
2019-02-08T00:47:02.646Z,85.91
2019-02-08T00:49:32.845Z,86.02
2019-02-08T00:52:03.021Z,85.81
2019-02-08T00:54:33.932Z,85.25
2019-02-08T00:57:04.142Z,84.22
2019-02-08T00:59:34.395Z,83.48
2019-02-08T01:02:04.889Z,83.00
2019-02-08T01:04:35.024Z,82.59
2019-02-08T01:07:05.307Z,82.56
2019-02-08T01:09:36.240Z,82.56
2019-02-08T01:12:06.641Z,82.72
2019-02-08T01:14:37.060Z,82.82
2019-02-08T01:17:07.054Z,82.98
2019-02-08T01:19:37.556Z,83.28
2019-02-08T01:22:07.799Z,83.43
2019-02-08T01:24:38.513Z,83.63
2019-02-08T01:27:08.462Z,83.79
2019-02-08T01:29:39.205Z,83.81
2019-02-08T01:32:09.402Z,83.89
2019-02-08T01:34:39.338Z,84.39
2019-02-08T01:37:09.500Z,84.88
2019-02-08T01:39:39.640Z,85.12
2019-02-08T01:42:09.823Z,85.25
2019-02-08T01:44:40.007Z,85.38
2019-02-08T01:47:10.162Z,85.34
2019-02-08T01:49:40.550Z,85.62
2019-02-08T01:52:10.802Z,85.61
2019-02-08T01:54:40.708Z,85.94
2019-02-08T01:57:11.249Z,86.21
2019-02-08T01:59:41.384Z,86.40
2019-02-08T02:02:12.871Z,86.63
2019-02-08T02:04:43.096Z,86.75
2019-02-08T02:07:13.349Z,86.98
2019-02-08T02:09:43.592Z,87.19
2019-02-08T02:12:13.606Z,87.32
2019-02-08T02:14:44.237Z,87.37
2019-02-08T02:17:14.661Z,87.32
2019-02-08T02:19:44.926Z,87.35
2019-02-08T02:22:15.324Z,87.38
2019-02-08T02:24:45.288Z,87.44
2019-02-08T02:27:15.524Z,87.49
2019-02-08T02:29:45.720Z,87.58
2019-02-08T02:32:16.131Z,87.67
2019-02-08T02:34:46.465Z,87.84
2019-02-08T02:37:16.612Z,87.94
2019-02-08T02:39:47.356Z,88.03
2019-02-08T02:42:17.502Z,88.12
2019-02-08T02:44:47.953Z,88.06
2019-02-08T02:47:18.129Z,88.12
2019-02-08T02:49:48.299Z,88.12
2019-02-08T02:52:18.891Z,88.19
2019-02-08T02:54:49.688Z,88.28
2019-02-08T02:57:20.377Z,88.14
2019-02-08T02:59:50.639Z,88.12
2019-02-08T03:02:21.059Z,88.17
2019-02-08T03:04:51.516Z,88.10
2019-02-08T03:07:21.880Z,88.06
2019-02-08T03:09:52.399Z,88.03
2019-02-08T03:12:22.528Z,88.04
2019-02-08T03:14:52.703Z,88.00
2019-02-08T03:17:23.178Z,87.97
2019-02-08T03:19:53.653Z,87.93
2019-02-08T03:22:23.955Z,87.79
2019-02-08T03:24:53.904Z,87.77
2019-02-08T03:27:24.675Z,87.55
2019-02-08T03:29:54.918Z,87.51
2019-02-08T03:32:25.025Z,87.53
2019-02-08T03:34:55.494Z,87.48
2019-02-08T03:37:25.488Z,87.44
2019-02-08T03:39:55.915Z,87.42
2019-02-08T03:42:26.354Z,87.35
2019-02-08T03:44:56.783Z,87.28
2019-02-08T03:47:26.736Z,87.11
2019-02-08T03:49:56.720Z,87.04
2019-02-08T03:52:26.728Z,86.99
2019-02-08T03:54:56.664Z,87.19
2019-02-08T03:57:26.583Z,87.41
2019-02-08T03:59:57.062Z,87.50
2019-02-08T04:02:27.900Z,87.67
2019-02-08T04:04:58.131Z,87.79
2019-02-08T04:07:28.068Z,87.87
2019-02-08T04:09:58.313Z,87.88
2019-02-08T04:12:28.580Z,88.11
2019-02-08T04:14:58.995Z,88.30
2019-02-08T04:17:28.952Z,88.50
2019-02-08T04:19:59.024Z,88.62
2019-02-08T04:22:28.955Z,88.84
2019-02-08T04:24:59.147Z,89.09
2019-02-08T04:27:29.411Z,89.19
2019-02-08T04:29:59.365Z,89.38
2019-02-08T04:32:29.580Z,89.46
2019-02-08T04:34:59.753Z,89.42
2019-02-08T04:37:29.962Z,89.36
2019-02-08T04:40:00.386Z,89.24
2019-02-08T04:42:30.283Z,89.05
2019-02-08T04:45:00.527Z,88.69
2019-02-08T04:47:30.703Z,88.36
2019-02-08T04:50:00.909Z,88.08
2019-02-08T04:52:31.106Z,87.96
2019-02-08T04:55:01.032Z,87.99
2019-02-08T04:57:30.942Z,87.62
2019-02-08T05:00:01.498Z,87.25
2019-02-08T05:02:31.483Z,86.42
2019-02-08T05:05:01.640Z,86.00
2019-02-08T05:07:32.116Z,85.88
2019-02-08T05:10:02.158Z,85.77
2019-02-08T05:12:32.072Z,85.65
2019-02-08T05:15:02.510Z,85.66
2019-02-08T05:17:32.501Z,85.53
2019-02-08T05:20:03.042Z,85.54
2019-02-08T05:22:33.782Z,85.40
2019-02-08T05:25:04.111Z,85.46
2019-02-08T05:27:34.293Z,85.42
2019-02-08T05:30:07.843Z,85.24
2019-02-08T05:32:38.017Z,85.03
2019-02-08T05:35:08.758Z,85.00
2019-02-08T05:37:39.276Z,85.04
2019-02-08T05:40:10.979Z,85.14
2019-02-08T05:42:41.261Z,85.36
2019-02-08T05:45:13.901Z,85.54
2019-02-08T05:47:44.138Z,85.97
2019-02-08T05:50:18.075Z,86.49
2019-02-08T05:52:48.083Z,86.70
2019-02-08T05:55:20.892Z,86.82
2019-02-08T05:57:51.166Z,86.92
2019-02-08T06:00:37.850Z,86.96
2019-02-08T06:03:08.396Z,87.07
2019-02-08T06:05:39.364Z,87.15
2019-02-08T06:08:10.528Z,87.21
2019-02-08T06:10:40.842Z,87.25
2019-02-08T06:13:11.706Z,87.40
2019-02-08T06:15:42.351Z,87.50
2019-02-08T06:18:13.474Z,87.59
2019-02-08T06:20:44.188Z,87.64
2019-02-08T06:23:14.698Z,87.84
2019-02-08T06:25:45.101Z,88.51
2019-02-08T06:28:15.658Z,88.58
2019-02-08T06:30:45.875Z,88.57
2019-02-08T06:33:16.139Z,88.44
2019-02-08T06:35:46.544Z,88.43
2019-02-08T06:38:16.930Z,88.59
2019-02-08T06:40:48.435Z,88.57
2019-02-08T06:43:18.765Z,88.73
2019-02-08T06:45:50.291Z,88.49
2019-02-08T06:48:20.291Z,88.19
2019-02-08T06:50:50.418Z,87.97
2019-02-08T06:53:20.847Z,87.71
2019-02-08T06:55:53.773Z,87.46
2019-02-08T06:58:31.516Z,87.08
2019-02-08T07:01:15.616Z,87.07
2019-02-08T07:04:12.917Z,87.00
2019-02-08T07:07:16.956Z,86.95
2019-02-08T07:10:00.684Z,86.90
2019-02-08T07:12:52.513Z,86.48
2019-02-08T07:15:30.787Z,86.12
2019-02-08T07:18:06.960Z,85.61
2019-02-08T07:20:56.098Z,85.23
2019-02-08T07:23:39.549Z,84.68
2019-02-08T07:26:27.424Z,84.41
2019-02-08T07:29:16.496Z,84.09
2019-02-08T07:31:57.828Z,83.87
2019-02-08T07:34:52.895Z,83.48
2019-02-08T07:37:40.653Z,84.61
2019-02-08T07:40:31.389Z,81.98
2019-02-08T07:43:29.387Z,79.88
2019-02-08T07:46:10.243Z,79.90
2019-02-08T07:48:54.423Z,79.85
2019-02-08T07:51:55.748Z,80.21
2019-02-08T07:55:03.312Z,79.93
2019-02-08T07:57:49.889Z,79.90
2019-02-08T08:00:39.278Z,79.63
2019-02-08T08:03:26.766Z,79.40
2019-02-08T08:06:19.489Z,78.98
2019-02-08T08:09:06.951Z,78.60
2019-02-08T08:11:42.879Z,78.01
2019-02-08T08:14:22.681Z,77.86
2019-02-08T08:17:06.056Z,77.75
2019-02-08T08:19:46.738Z,77.66
2019-02-08T08:22:27.846Z,76.97
2019-02-08T08:25:23.179Z,76.77
2019-02-08T08:28:15.335Z,74.93
2019-02-08T08:30:55.969Z,73.26
2019-02-08T08:33:55.951Z,72.18
2019-02-08T08:37:16.096Z,70.89
2019-02-08T08:40:44.087Z,70.48
2019-02-08T08:43:55.424Z,70.45
2019-02-08T08:47:19.583Z,71.44
2019-02-08T08:50:55.247Z,70.53
2019-02-08T08:54:05.891Z,70.09
2019-02-08T08:57:40.265Z,68.98
2019-02-08T09:01:00.732Z,68.81
2019-02-08T09:04:26.928Z,67.74
2019-02-08T09:07:41.530Z,67.36
2019-02-08T09:10:51.312Z,66.53
2019-02-08T09:14:15.465Z,66.55
2019-02-08T09:17:42.946Z,66.33
2019-02-08T09:21:02.990Z,65.99
2019-02-08T09:24:47.200Z,64.45
2019-02-08T09:28:08.951Z,55.61
2019-02-08T09:31:09.354Z,46.83
2019-02-08T09:34:33.328Z,46.84
2019-02-08T09:37:44.990Z,46.20
2019-02-08T09:40:59.240Z,47.39
2019-02-08T09:44:34.453Z,48.96
2019-02-08T09:48:07.513Z,46.20
2019-02-08T09:51:30.498Z,44.15
2019-02-08T09:54:52.230Z,42.80
2019-02-08T09:57:50.173Z,42.69
2019-02-08T10:01:21.221Z,43.22
2019-02-08T10:04:36.881Z,43.19
2019-02-08T10:08:07.866Z,47.04
2019-02-08T10:11:48.745Z,53.19
2019-02-08T10:15:18.725Z,54.87
2019-02-08T10:18:59.823Z,56.37
2019-02-08T10:22:41.286Z,57.39
2019-02-08T10:26:15.064Z,56.17
2019-02-08T10:29:41.752Z,57.67
2019-02-08T10:33:01.519Z,58.38
2019-02-08T10:36:25.047Z,58.26
2019-02-08T10:39:55.200Z,58.64
2019-02-08T10:43:28.518Z,59.21
2019-02-08T10:46:37.844Z,61.42
2019-02-08T10:49:56.657Z,64.24
2019-02-08T10:53:27.555Z,61.06
2019-02-08T10:56:44.435Z,62.30
2019-02-08T10:59:52.568Z,62.04
2019-02-08T11:03:27.924Z,61.08
2019-02-08T11:06:49.537Z,60.27
2019-02-08T11:10:22.092Z,58.53
2019-02-08T11:13:49.862Z,57.84
2019-02-08T11:17:15.687Z,58.66
2019-02-08T11:19:43.967Z,57.29
2019-02-08T11:22:14.394Z,57.91
2019-02-08T11:24:44.561Z,57.84
2019-02-08T11:27:15.094Z,57.45
2019-02-08T11:29:45.257Z,56.37
2019-02-08T11:32:15.309Z,57.02
2019-02-08T11:34:45.458Z,58.48
2019-02-08T11:37:15.768Z,58.94
2019-02-08T11:39:45.832Z,59.15
2019-02-08T11:42:15.984Z,58.38
2019-02-08T11:44:46.223Z,58.51
2019-02-08T11:47:16.235Z,58.64
2019-02-08T11:49:46.181Z,58.84
2019-02-08T11:52:16.614Z,59.77
2019-02-08T11:54:46.771Z,59.51
2019-02-08T11:57:17.015Z,59.31
2019-02-08T11:59:46.930Z,58.77
2019-02-08T12:02:18.438Z,58.29
2019-02-08T12:04:48.415Z,58.04
2019-02-08T12:07:18.428Z,59.19
2019-02-08T12:09:48.882Z,59.06
2019-02-08T12:12:19.302Z,58.13
2019-02-08T12:14:49.325Z,57.99
2019-02-08T12:17:19.620Z,58.42
2019-02-08T12:19:50.278Z,57.94
2019-02-08T12:22:20.454Z,58.61
2019-02-08T12:24:52.500Z,60.38
2019-02-08T12:27:22.824Z,60.81
2019-02-08T12:29:53.056Z,59.80
2019-02-08T12:32:23.211Z,58.80
2019-02-08T12:34:53.371Z,58.60
2019-02-08T12:37:23.605Z,58.44
2019-02-08T12:39:53.524Z,57.44
2019-02-08T12:42:23.530Z,56.60
2019-02-08T12:44:54.169Z,57.24
2019-02-08T12:47:24.640Z,56.48
2019-02-08T12:49:54.562Z,55.77
2019-02-08T12:52:25.222Z,55.69
2019-02-08T12:54:55.632Z,55.69
2019-02-08T12:57:26.028Z,56.69
2019-02-08T12:59:56.417Z,56.91
2019-02-08T13:02:26.583Z,57.33
2019-02-08T13:04:56.941Z,58.17
2019-02-08T13:07:54.415Z,57.61
2019-02-08T13:10:25.309Z,56.33
2019-02-08T13:12:55.272Z,55.66
2019-02-08T13:15:25.682Z,54.58
2019-02-08T13:17:55.504Z,56.39
2019-02-08T13:20:25.471Z,55.18
2019-02-08T13:22:55.691Z,53.36
2019-02-08T13:25:25.851Z,53.53
2019-02-08T13:27:55.700Z,53.99
2019-02-08T13:30:28.510Z,56.16
2019-02-08T13:32:58.525Z,56.96
2019-02-08T13:35:28.693Z,58.31
2019-02-08T13:37:58.600Z,59.16
2019-02-08T13:40:28.532Z,59.32
2019-02-08T13:42:58.422Z,59.58
2019-02-08T13:45:28.739Z,59.18
2019-02-08T13:47:59.043Z,58.92
2019-02-08T13:50:29.253Z,58.75
2019-02-08T13:52:59.495Z,58.74
2019-02-08T13:55:29.802Z,59.36
2019-02-08T13:57:59.803Z,58.40
2019-02-08T14:00:35.682Z,58.18
2019-02-08T14:03:06.612Z,57.84
2019-02-08T14:05:36.647Z,58.76
2019-02-08T14:08:07.474Z,59.72
2019-02-08T14:10:37.525Z,60.40
2019-02-08T14:13:07.521Z,61.89
2019-02-08T14:15:37.766Z,63.15
2019-02-08T14:18:07.795Z,66.31
2019-02-08T14:20:37.732Z,64.88
2019-02-08T14:23:07.553Z,64.85
2019-02-08T14:25:37.441Z,66.60
2019-02-08T14:28:07.271Z,64.85
2019-02-08T14:30:39.993Z,65.05
2019-02-08T14:33:10.005Z,65.55
2019-02-08T14:35:40.148Z,65.22
2019-02-08T14:38:17.859Z,65.77
2019-02-08T14:40:48.136Z,65.50
2019-02-08T14:43:17.984Z,65.44
2019-02-08T14:45:48.087Z,65.94
2019-02-08T14:48:18.180Z,65.94
2019-02-08T14:50:48.098Z,65.85
2019-02-08T14:53:17.959Z,65.72
2019-02-08T14:55:47.879Z,65.74
2019-02-08T14:58:17.816Z,65.43
2019-02-08T15:00:47.873Z,67.07
2019-02-08T15:03:17.746Z,67.43
2019-02-08T15:05:47.598Z,67.18
2019-02-08T15:08:17.453Z,67.46
2019-02-08T15:10:49.469Z,67.62
2019-02-08T15:13:19.333Z,67.58
2019-02-08T15:15:49.184Z,67.44
2019-02-08T15:18:19.308Z,67.66
2019-02-08T15:20:49.136Z,67.93
2019-02-08T15:23:19.219Z,67.73
2019-02-08T15:25:49.084Z,67.60
2019-02-08T15:28:18.884Z,68.13
2019-02-08T15:30:48.773Z,68.43
2019-02-08T15:33:18.632Z,68.77
2019-02-08T15:35:48.500Z,69.54
2019-02-08T15:38:18.335Z,69.36
2019-02-08T15:40:51.797Z,69.05
2019-02-08T15:43:23.484Z,68.62
2019-02-08T15:46:00.215Z,69.20
2019-02-08T15:48:30.170Z,69.89
2019-02-08T15:51:00.015Z,70.07
2019-02-08T15:53:29.860Z,73.20
2019-02-08T15:56:08.883Z,70.36
2019-02-08T15:58:39.040Z,68.54
2019-02-08T16:01:11.376Z,68.81
2019-02-08T16:03:41.528Z,68.90
2019-02-08T16:06:11.725Z,69.28
2019-02-08T16:08:41.630Z,69.49
2019-02-08T16:11:11.897Z,69.87
2019-02-08T16:13:41.729Z,70.18
2019-02-08T16:16:12.363Z,70.18
2019-02-08T16:18:42.618Z,70.34
2019-02-08T16:21:12.597Z,70.46
2019-02-08T16:23:42.432Z,70.57
2019-02-08T16:26:12.352Z,69.92
2019-02-08T16:28:42.485Z,69.54
2019-02-08T16:31:12.421Z,69.10
2019-02-08T16:33:42.224Z,69.22
2019-02-08T16:36:12.222Z,69.95
2019-02-08T16:38:42.094Z,70.26
2019-02-08T16:41:12.416Z,70.91
2019-02-08T16:43:42.586Z,71.61
2019-02-08T16:46:12.590Z,72.99
2019-02-08T16:48:42.473Z,73.40
2019-02-08T16:51:12.438Z,74.66
2019-02-08T16:53:42.793Z,75.78
2019-02-08T16:56:12.976Z,75.34
2019-02-08T16:58:42.824Z,75.52
2019-02-08T17:01:12.797Z,75.25
2019-02-08T17:03:42.684Z,75.52
2019-02-08T17:06:12.689Z,75.25
2019-02-08T17:08:42.586Z,75.48
2019-02-08T17:11:12.413Z,76.41
2019-02-08T17:13:42.234Z,76.18
2019-02-08T17:16:12.338Z,75.89
2019-02-08T17:18:42.740Z,76.48
2019-02-08T17:21:13.359Z,75.55
2019-02-08T17:23:43.725Z,76.09
2019-02-08T17:26:13.918Z,75.44
2019-02-08T17:28:44.031Z,75.79
2019-02-08T17:31:14.156Z,75.51
2019-02-08T17:33:44.743Z,75.50
2019-02-08T17:36:14.846Z,75.13
2019-02-08T17:38:44.687Z,75.74
2019-02-08T17:41:14.666Z,75.20
2019-02-08T17:43:44.624Z,74.59
2019-02-08T17:46:14.504Z,74.72
2019-02-08T17:48:44.384Z,74.76
2019-02-08T17:51:14.245Z,74.87
2019-02-08T17:53:44.328Z,75.04
2019-02-08T17:56:14.628Z,75.04
2019-02-08T17:58:44.576Z,75.48
2019-02-08T18:01:14.508Z,76.14
2019-02-08T18:03:44.413Z,76.40
2019-02-08T18:06:14.280Z,76.52
2019-02-08T18:08:44.388Z,77.29
2019-02-08T18:11:14.255Z,77.36
2019-02-08T18:13:44.403Z,77.47
2019-02-08T18:16:14.585Z,77.46
2019-02-08T18:18:44.474Z,77.45
2019-02-08T18:21:14.354Z,77.22
2019-02-08T18:23:44.413Z,77.50
2019-02-08T18:26:14.557Z,77.43
2019-02-08T18:28:44.410Z,77.78
2019-02-08T18:31:14.296Z,77.44
2019-02-08T18:33:44.149Z,79.50
2019-02-08T18:36:13.995Z,78.54
2019-02-08T18:38:43.863Z,77.53
2019-02-08T18:41:13.931Z,77.42
2019-02-08T18:43:43.988Z,77.19
2019-02-08T18:46:13.917Z,76.83
2019-02-08T18:48:43.785Z,76.58
2019-02-08T18:51:13.638Z,76.89
2019-02-08T18:53:43.724Z,76.33
2019-02-08T18:56:13.549Z,76.21
2019-02-08T18:58:43.464Z,75.99
2019-02-08T19:01:13.752Z,75.74
2019-02-08T19:03:44.028Z,75.77
2019-02-08T19:06:13.886Z,76.09
2019-02-08T19:08:43.760Z,75.59
2019-02-08T19:11:14.097Z,74.94
2019-02-08T19:13:44.200Z,75.08
2019-02-08T19:16:14.101Z,75.31
2019-02-08T19:18:43.965Z,75.04
2019-02-08T19:21:14.317Z,74.70
2019-02-08T19:23:44.461Z,74.66
2019-02-08T19:26:14.818Z,74.62
2019-02-08T19:28:44.942Z,74.48
2019-02-08T19:31:15.236Z,74.41
2019-02-08T19:33:45.137Z,74.28
2019-02-08T19:36:15.575Z,74.17
2019-02-08T19:38:47.415Z,73.75
2019-02-08T19:41:17.567Z,72.96
2019-02-08T19:43:47.454Z,73.29
2019-02-08T19:46:17.306Z,73.66
2019-02-08T19:48:47.631Z,73.99
2019-02-08T19:51:17.495Z,74.06
2019-02-08T19:53:47.377Z,74.38
2019-02-08T19:56:17.245Z,74.40
2019-02-08T19:58:47.082Z,74.54
2019-02-08T20:01:17.005Z,74.09
2019-02-08T20:03:46.954Z,74.04
2019-02-08T20:06:16.901Z,73.12
2019-02-08T20:08:46.782Z,72.93
2019-02-08T20:11:16.913Z,73.46
2019-02-08T20:13:47.290Z,74.41
2019-02-08T20:16:17.204Z,75.23
2019-02-08T20:18:47.039Z,75.25
2019-02-08T20:21:17.122Z,75.78
2019-02-08T20:23:47.451Z,76.29
2019-02-08T20:26:17.323Z,76.46
2019-02-08T20:28:47.180Z,76.64
2019-02-08T20:31:17.030Z,77.37
2019-02-08T20:33:46.891Z,77.53
2019-02-08T20:36:16.857Z,77.62
2019-02-08T20:38:46.973Z,77.56
2019-02-08T20:41:16.901Z,77.50
2019-02-08T20:43:46.737Z,77.81
2019-02-08T20:46:16.653Z,77.80
2019-02-08T20:48:46.583Z,77.97
2019-02-08T20:51:16.610Z,77.82
2019-02-08T20:53:46.581Z,77.55
2019-02-08T20:56:16.444Z,77.70
2019-02-08T20:58:50.414Z,77.51
2019-02-08T21:01:17.951Z,77.70
2019-02-08T21:03:48.191Z,77.66
2019-02-08T21:06:18.125Z,77.80
2019-02-08T21:08:48.211Z,77.81
2019-02-08T21:11:18.032Z,77.99
2019-02-08T21:13:48.142Z,77.99
2019-02-08T21:16:18.208Z,77.13
2019-02-08T21:18:48.275Z,75.80
2019-02-08T21:21:18.195Z,74.31
2019-02-08T21:23:48.293Z,73.31
2019-02-08T21:26:18.161Z,72.66
2019-02-08T21:28:47.988Z,72.23
2019-02-08T21:31:17.867Z,72.17
2019-02-08T21:33:47.729Z,72.08
2019-02-08T21:36:17.601Z,72.33
2019-02-08T21:38:47.656Z,72.40
2019-02-08T21:41:17.506Z,72.29
2019-02-08T21:43:47.338Z,72.74
2019-02-08T21:46:17.409Z,72.85
2019-02-08T21:48:47.481Z,72.94
2019-02-08T21:51:17.359Z,73.08
2019-02-08T21:53:47.172Z,73.41
2019-02-08T21:56:17.269Z,73.38
2019-02-08T21:58:50.355Z,73.04
2019-02-08T22:01:20.532Z,72.93
2019-02-08T22:03:50.599Z,72.29
2019-02-08T22:06:20.526Z,72.04
2019-02-08T22:08:50.871Z,72.30
2019-02-08T22:11:20.950Z,72.65
2019-02-08T22:13:50.782Z,73.06
2019-02-08T22:16:20.731Z,73.00
2019-02-08T22:18:50.600Z,73.09
2019-02-08T22:21:20.459Z,72.95
2019-02-08T22:23:50.531Z,72.57
2019-02-08T22:26:20.488Z,72.54
2019-02-08T22:28:50.381Z,72.91
2019-02-08T22:31:20.251Z,73.06
2019-02-08T22:33:50.086Z,73.48
2019-02-08T22:36:20.244Z,73.52
2019-02-08T22:38:50.120Z,73.39
2019-02-08T22:41:19.948Z,73.62
2019-02-08T22:43:49.812Z,73.99
2019-02-08T22:46:19.675Z,73.50
2019-02-08T22:48:49.484Z,73.41
2019-02-08T22:51:19.562Z,73.41
2019-02-08T22:53:49.438Z,73.16
2019-02-08T22:56:19.560Z,72.70
2019-02-08T22:58:49.388Z,72.64
2019-02-08T23:01:29.523Z,72.71
2019-02-08T23:04:01.673Z,72.44
2019-02-08T23:06:32.040Z,71.68
2019-02-08T23:09:01.932Z,71.74
2019-02-08T23:11:31.862Z,72.23
2019-02-08T23:14:01.763Z,72.02
2019-02-08T23:16:31.616Z,71.84
2019-02-08T23:19:01.443Z,71.35
2019-02-08T23:21:31.265Z,71.18
2019-02-08T23:24:01.207Z,71.45
2019-02-08T23:26:31.071Z,71.33
2019-02-08T23:29:01.152Z,70.76
2019-02-08T23:31:31.046Z,70.89
2019-02-08T23:34:01.167Z,71.42
2019-02-08T23:36:31.132Z,71.58
2019-02-08T23:39:01.010Z,71.29
2019-02-08T23:41:30.861Z,71.25
2019-02-08T23:44:00.722Z,70.84
2019-02-08T23:46:30.547Z,71.28
2019-02-08T23:49:00.369Z,71.45
2019-02-08T23:51:30.259Z,71.76
2019-02-08T23:54:00.140Z,71.20
2019-02-08T23:56:30.496Z,71.19
2019-02-08T23:59:00.615Z,71.43
